Time;durP1;ratioP1;P1;durP2;ratioP2;P2;SDS_P1;SDS_P2;PMS_P1;PMS_P2;Temp;Humidity;BMP_temperature;BMP_pressure;BME280_temperature;BME280_humidity;BME280_pressure;Samples;Min_cycle;Max_cycle;Signal;HPM_P1;HPM_P2
2021/04/20 00:08:45;;;;;;;9.68;5.68;;;0.10;99.90;;;;;;20989652;28;20028;-45
2021/04/20 00:18:46;;;;;;;5.47;3.40;;;0.10;99.90;;;;;;21014866;28;20399;-44
2021/04/20 00:28:48;;;;;;;6.63;3.72;;;0.20;99.90;;;;;;21021356;28;20056;-44
2021/04/20 00:38:50;;;;;;;8.80;5.50;;;0.40;99.90;;;;;;20988281;28;20082;-44
2021/04/20 00:48:52;;;;;;;8.35;4.97;;;0.10;99.90;;;;;;20988351;28;20548;-46
2021/04/20 00:58:54;;;;;;;10.38;6.43;;;0.00;99.90;;;;;;20987638;28;20040;-44
2021/04/20 01:08:56;;;;;;;10.43;5.50;;;0.00;99.90;;;;;;20987209;28;20082;-44
2021/04/20 01:18:58;;;;;;;6.78;3.53;;;0.00;99.90;;;;;;20996592;28;20056;-45
2021/04/20 01:29:01;;;;;;;4.20;2.75;;;-0.10;99.90;;;;;;21070255;28;20032;-44
2021/04/20 01:39:06;;;;;;;3.10;1.80;;;-0.10;99.90;;;;;;21083247;28;20085;-44
2021/04/20 01:49:08;;;;;;;2.53;1.52;;;-0.10;99.90;;;;;;21083952;28;20040;-43
2021/04/20 01:59:09;;;;;;;2.88;1.73;;;0.00;99.90;;;;;;21082753;28;20044;-47
2021/04/20 02:09:11;;;;;;;2.72;1.60;;;0.00;99.90;;;;;;21082765;28;20036;-44
2021/04/20 02:19:15;;;;;;;3.38;1.63;;;0.10;99.90;;;;;;21051295;28;20049;-45
2021/04/20 02:29:17;;;;;;;3.40;1.60;;;0.10;99.90;;;;;;20997098;28;20032;-45
2021/04/20 02:39:19;;;;;;;3.40;1.70;;;0.10;99.90;;;;;;20995983;28;20549;-43
2021/04/20 02:49:21;;;;;;;3.90;1.90;;;-0.10;99.90;;;;;;20994886;28;20044;-45
2021/04/20 02:59:23;;;;;;;3.25;1.80;;;-0.10;99.90;;;;;;20994309;28;20036;-43
2021/04/20 03:09:25;;;;;;;3.35;1.90;;;-0.10;99.90;;;;;;20993323;28;20098;-45
2021/04/20 03:19:27;;;;;;;3.35;1.85;;;0.00;99.90;;;;;;20992578;28;20028;-44
2021/04/20 03:29:29;;;;;;;3.55;2.10;;;0.00;99.90;;;;;;20991982;28;20036;-44
2021/04/20 03:39:38;;;;;;;3.65;2.08;;;0.00;99.90;;;;;;20991340;28;20101;-48
2021/04/20 03:49:43;;;;;;;2.97;1.70;;;0.10;99.90;;;;;;20990829;28;20427;-43
2021/04/20 03:59:47;;;;;;;3.00;1.55;;;0.00;99.90;;;;;;20989494;28;20040;-43
2021/04/20 04:09:50;;;;;;;3.05;1.50;;;-0.10;99.90;;;;;;20989802;28;20169;-45
2021/04/20 04:19:54;;;;;;;4.40;1.75;;;0.00;99.90;;;;;;21024291;28;20036;-45
2021/04/20 04:30:00;;;;;;;3.25;1.98;;;0.20;99.90;;;;;;21012003;28;20036;-43
2021/04/20 04:40:05;;;;;;;2.78;1.77;;;0.10;99.90;;;;;;20988523;28;20032;-44
2021/04/20 04:50:09;;;;;;;4.70;2.15;;;0.20;99.90;;;;;;20970152;28;20032;-43
2021/04/20 05:00:12;;;;;;;2.88;1.90;;;0.30;99.90;;;;;;20987762;28;20040;-43
2021/04/20 05:10:14;;;;;;;3.88;2.15;;;0.30;99.90;;;;;;20997153;28;20492;-43
2021/04/20 05:20:20;;;;;;;4.95;2.33;;;0.60;99.90;;;;;;21040983;28;20039;-45
2021/04/20 05:30:22;;;;;;;3.80;2.40;;;1.30;99.90;;;;;;21085746;28;20097;-44
2021/04/20 05:40:31;;;;;;;3.58;1.90;;;1.70;99.90;;;;;;21084731;28;20098;-43
2021/04/20 05:50:32;;;;;;;4.43;1.73;;;1.90;99.90;;;;;;21083949;28;20044;-48
2021/04/20 06:00:34;;;;;;;3.90;1.77;;;1.90;99.90;;;;;;21082967;28;20093;-44
2021/04/20 06:10:38;;;;;;;3.72;1.90;;;2.10;99.90;;;;;;21083608;28;20048;-45
2021/04/20 06:20:40;;;;;;;2.92;1.80;;;2.10;99.90;;;;;;21038516;28;20033;-43
2021/04/20 06:30:43;;;;;;;3.00;1.55;;;2.30;99.90;;;;;;20997072;28;20101;-43
2021/04/20 06:40:52;;;;;;;1.92;1.30;;;3.80;99.90;;;;;;20996142;28;20561;-44
2021/04/20 06:50:57;;;;;;;2.63;1.58;;;6.80;99.10;;;;;;20995495;28;20436;-44
2021/04/20 07:01:01;;;;;;;5.63;1.50;;;7.90;95.20;;;;;;20960074;28;20037;-44
2021/04/20 07:11:08;;;;;;;1.92;1.60;;;9.10;90.10;;;;;;20993285;28;20056;-44
2021/04/20 07:21:44;;;;;;;2.95;2.25;;;9.50;82.80;;;;;;20992852;28;20113;-45
2021/04/20 07:31:49;;;;;;;2.58;2.10;;;9.10;92.90;;;;;;20992149;28;20495;-47
2021/04/20 07:42:11;;;;;;;2.92;2.20;;;10.30;91.90;;;;;;20992517;28;20037;-45
2021/04/20 07:52:30;;;;;;;4.13;2.65;;;11.00;91.60;;;;;;20990744;28;20493;-44
2021/04/20 08:02:38;;;;;;;3.22;2.40;;;11.40;89.70;;;;;;20989969;28;20036;-44
2021/04/20 08:13:11;;;;;;;2.17;1.80;;;11.20;84.10;;;;;;20989609;28;20052;-47
2021/04/20 08:23:16;;;;;;;2.35;1.83;;;11.30;86.00;;;;;;21048206;28;20408;-44
2021/04/20 08:33:23;;;;;;;2.65;2.00;;;12.20;85.80;;;;;;20988901;28;20033;-48
2021/04/20 08:43:43;;;;;;;2.58;1.90;;;12.40;78.80;;;;;;20996010;28;20036;-45
2021/04/20 08:54:00;;;;;;;2.00;1.70;;;12.50;78.10;;;;;;21004532;28;20037;-47
2021/04/20 09:04:35;;;;;;;1.83;1.65;;;12.60;73.60;;;;;;21003910;28;20466;-44
2021/04/20 09:14:39;;;;;;;1.63;1.52;;;13.00;74.50;;;;;;21003128;28;20040;-45
2021/04/20 09:24:54;;;;;;;1.80;1.50;;;13.30;72.10;;;;;;21077779;28;20105;-46
2021/04/20 09:35:06;;;;;;;2.30;1.42;;;13.60;64.30;;;;;;21068726;28;20105;-50
2021/04/20 09:45:17;;;;;;;3.33;1.20;;;13.80;69.60;;;;;;21084412;28;20101;-45
2021/04/20 09:55:28;;;;;;;3.33;1.40;;;13.90;65.20;;;;;;21082373;28;20028;-44
2021/04/20 10:05:50;;;;;;;2.63;1.52;;;13.50;59.10;;;;;;21083306;28;20040;-48
2021/04/20 10:16:20;;;;;;;0.90;0.70;;;14.10;61.50;;;;;;21079053;28;20041;-50
2021/04/20 10:26:28;;;;;;;4.30;2.70;;;14.90;60.90;;;;;;20997544;28;20032;-46
2021/04/20 10:36:31;;;;;;;2.97;2.20;;;15.10;67.90;;;;;;20996991;28;20045;-45
2021/04/20 10:46:33;;;;;;;5.95;4.60;;;14.80;62.20;;;;;;20995825;28;20033;-44
2021/04/20 10:56:36;;;;;;;6.03;4.47;;;15.30;69.20;;;;;;21012663;28;20076;-45
2021/04/20 11:07:17;;;;;;;5.78;3.97;;;14.80;69.90;;;;;;21077613;28;20048;-47
2021/04/20 11:17:23;;;;;;;5.97;4.38;;;13.70;71.70;;;;;;21063879;28;20048;-44
2021/04/20 11:27:29;;;;;;;7.05;4.50;;;13.00;72.20;;;;;;20992542;28;20036;-49
2021/04/20 11:37:33;;;;;;;7.38;4.38;;;11.80;72.40;;;;;;20992007;28;20032;-43
2021/04/20 11:47:36;;;;;;;8.05;4.10;;;10.70;77.50;;;;;;20990628;28;20114;-44
2021/04/20 11:57:39;;;;;;;5.20;3.72;;;11.00;77.10;;;;;;20990720;28;20109;-49
2021/04/20 12:07:41;;;;;;;5.43;2.97;;;11.70;75.80;;;;;;20991702;28;20033;-44
2021/04/20 12:17:44;;;;;;;4.63;3.40;;;11.80;75.80;;;;;;20988732;28;20040;-44
2021/04/20 12:27:58;;;;;;;4.32;2.90;;;12.10;71.50;;;;;;20988441;28;20086;-44
2021/04/20 12:38:20;;;;;;;4.88;3.15;;;12.40;68.70;;;;;;20988651;28;20097;-44
2021/04/20 12:48:28;;;;;;;7.10;4.47;;;12.60;70.10;;;;;;20988091;28;20124;-44
2021/04/20 12:58:32;;;;;;;8.88;6.00;;;14.10;68.20;;;;;;20988080;28;20058;-44
2021/04/20 13:08:43;;;;;;;12.48;7.35;;;13.90;68.80;;;;;;20987412;28;20086;-45
2021/04/20 13:18:46;;;;;;;14.18;8.35;;;13.90;68.10;;;;;;20968905;28;20132;-46
2021/04/20 13:28:51;;;;;;;14.68;8.20;;;12.90;71.60;;;;;;20992271;28;20091;-44
2021/04/20 13:39:05;;;;;;;14.30;8.50;;;11.80;72.00;;;;;;21001140;28;20123;-43
2021/04/20 13:49:07;;;;;;;13.65;8.10;;;11.10;76.40;;;;;;21000255;28;20045;-50
2021/04/20 13:59:13;;;;;;;14.40;8.48;;;10.50;74.50;;;;;;21060191;28;20032;-43
2021/04/20 14:09:24;;;;;;;13.43;8.02;;;8.90;91.90;;;;;;21082695;28;20501;-43
2021/04/20 14:19:27;;;;;;;10.03;6.20;;;7.40;96.30;;;;;;20966794;28;20389;-43
2021/04/20 14:29:30;;;;;;;11.45;6.57;;;6.50;99.20;;;;;;20914475;28;20106;-43
2021/04/20 14:39:36;;;;;;;7.57;4.70;;;6.10;99.90;;;;;;20913133;28;20033;-43
2021/04/20 14:49:44;;;;;;;4.88;2.45;;;5.80;99.90;;;;;;20912920;28;20185;-44
2021/04/20 14:59:49;;;;;;;6.45;3.78;;;5.60;99.90;;;;;;20912239;28;20091;-43
2021/04/20 15:09:58;;;;;;;8.45;4.63;;;6.30;99.90;;;;;;20914797;28;20041;-44
2021/04/20 15:20:02;;;;;;;4.00;2.30;;;7.40;99.40;;;;;;21029664;28;20040;-44
2021/04/20 15:30:16;;;;;;;13.35;7.13;;;8.60;97.10;;;;;;21076238;28;20085;-44
2021/04/20 15:40:17;;;;;;;14.40;8.02;;;9.50;94.10;;;;;;21075416;28;20081;-44
2021/04/20 15:50:25;;;;;;;12.23;7.28;;;9.70;91.80;;;;;;21073998;28;20089;-45
2021/04/20 16:00:39;;;;;;;12.25;7.55;;;10.00;91.20;;;;;;21074098;28;20036;-48
2021/04/20 16:10:44;;;;;;;10.90;7.43;;;11.80;81.50;;;;;;21073487;28;20044;-44
2021/04/20 16:20:51;;;;;;;11.43;6.78;;;11.20;79.40;;;;;;21030271;28;20094;-43
2021/04/20 16:31:06;;;;;;;9.18;5.55;;;9.40;83.90;;;;;;20988885;28;20044;-43
2021/04/20 16:41:36;;;;;;;8.88;5.65;;;8.30;87.10;;;;;;20988666;28;20496;-43
2021/04/20 16:52:11;;;;;;;9.80;6.18;;;7.50;93.50;;;;;;20984591;28;20454;-44
2021/04/20 17:02:19;;;;;;;8.65;5.07;;;6.70;96.70;;;;;;20992458;28;20028;-43
2021/04/20 17:13:23;;;;;;;10.93;5.47;;;5.90;99.90;;;;;;21004027;28;20040;-49
2021/04/20 17:23:46;;;;;;;11.80;5.47;;;5.40;99.90;;;;;;20909700;28;20109;-45
2021/04/20 17:34:13;;;;;;;13.13;5.72;;;4.80;99.90;;;;;;21085655;28;20032;-44
2021/04/20 17:44:46;;;;;;;13.45;7.25;;;4.30;99.90;;;;;;21084919;28;20036;-48
2021/04/20 17:55:31;;;;;;;13.18;7.30;;;3.90;99.90;;;;;;21041524;28;20093;-42
2021/04/20 18:05:51;;;;;;;13.23;7.82;;;3.60;99.90;;;;;;20985899;28;20114;-42
2021/04/20 18:16:28;;;;;;;12.73;7.40;;;3.40;99.90;;;;;;20981448;28;20052;-45
2021/04/20 18:26:51;;;;;;;17.00;8.38;;;3.60;99.90;;;;;;21081377;28;20109;-49
2021/04/20 18:37:09;;;;;;;12.32;7.22;;;3.60;99.90;;;;;;21080713;28;20040;-43
2021/04/20 18:47:46;;;;;;;14.00;8.55;;;3.50;99.90;;;;;;21080797;28;20061;-49
2021/04/20 18:57:50;;;;;;;14.02;7.78;;;3.40;99.90;;;;;;21058279;28;20040;-43
2021/04/20 19:08:23;;;;;;;15.32;8.40;;;3.20;99.90;;;;;;21078663;28;20090;-47
2021/04/20 19:18:51;;;;;;;15.02;8.68;;;3.30;99.90;;;;;;21054314;28;20105;-43
2021/04/20 19:29:28;;;;;;;14.40;8.52;;;3.50;99.90;;;;;;20974344;28;20032;-44
2021/04/20 19:40:01;;;;;;;14.00;8.60;;;3.40;99.90;;;;;;20991637;28;20041;-45
2021/04/20 19:50:14;;;;;;;15.57;8.85;;;3.30;99.90;;;;;;20987648;28;20103;-43
2021/04/20 20:00:22;;;;;;;15.85;9.15;;;3.00;99.90;;;;;;20973359;28;20472;-45
2021/04/20 20:10:36;;;;;;;19.13;10.65;;;2.90;99.90;;;;;;20990033;28;20066;-44
2021/04/20 20:20:58;;;;;;;17.90;10.43;;;2.90;99.90;;;;;;21030900;28;20097;-42
2021/04/20 20:31:05;;;;;;;22.90;12.15;;;2.70;99.90;;;;;;21003366;28;20055;-42
2021/04/20 20:41:12;;;;;;;23.75;11.95;;;2.60;99.90;;;;;;20998997;28;20502;-43
2021/04/20 20:51:15;;;;;;;21.15;12.02;;;2.50;99.90;;;;;;21005364;28;20078;-43
2021/04/20 21:01:28;;;;;;;23.00;12.70;;;2.40;99.90;;;;;;21004214;28;20032;-42
2021/04/20 21:11:31;;;;;;;24.60;13.18;;;2.40;99.90;;;;;;21003570;28;20040;-43
2021/04/20 21:21:34;;;;;;;21.83;12.43;;;2.40;99.90;;;;;;21051959;28;20048;-45
2021/04/20 21:31:36;;;;;;;21.88;12.48;;;2.30;99.90;;;;;;21085745;28;20044;-43
2021/04/20 21:41:42;;;;;;;23.60;12.80;;;2.10;99.90;;;;;;21084602;28;20525;-43
2021/04/20 21:51:46;;;;;;;25.92;13.60;;;2.00;99.90;;;;;;21083912;28;20031;-45
2021/04/20 22:01:49;;;;;;;26.42;14.07;;;1.90;99.90;;;;;;20999668;28;20041;-42
2021/04/20 22:11:56;;;;;;;25.15;13.18;;;2.10;99.90;;;;;;20998523;28;20110;-43
2021/04/20 22:21:59;;;;;;;27.17;12.85;;;2.10;99.90;;;;;;21050575;28;20044;-42
2021/04/20 22:32:02;;;;;;;23.02;13.35;;;2.10;99.90;;;;;;21080806;28;20078;-44
2021/04/20 22:42:07;;;;;;;23.88;14.13;;;2.10;99.90;;;;;;21079820;28;20544;-42
2021/04/20 22:52:27;;;;;;;23.42;13.43;;;2.00;99.90;;;;;;21079154;28;20040;-43
2021/04/20 23:02:29;;;;;;;24.15;14.10;;;1.80;99.90;;;;;;21077602;28;20336;-43
2021/04/20 23:12:33;;;;;;;19.88;11.60;;;2.20;99.90;;;;;;21076975;28;20040;-43
2021/04/20 23:22:46;;;;;;;23.25;13.30;;;3.20;99.90;;;;;;21000196;28;20040;-42
2021/04/20 23:32:48;;;;;;;22.08;13.10;;;3.80;99.90;;;;;;20991567;28;20041;-45
2021/04/20 23:42:50;;;;;;;19.70;11.80;;;3.70;99.90;;;;;;20990870;28;20071;-44
2021/04/20 23:52:53;;;;;;;20.63;11.85;;;3.20;99.90;;;;;;20990332;28;20070;-42
